Hlavní strana
METAR-TAF:

METAR-TAF

Letiště :

Morristown, Tennessee, Spojené státy americké

zeměpisná šířka: 36-10-46N, zeměpisná délka: 083-22-32W, výška: 400 m

Aktuální stav počasí

Zpráva byla vytvořena před 24 minutami, v 18:15 UTC
Bezvětří
Teplota 8°C
Vlhkost vzduchu 100%
Tlak 1019 hPa
Viditelnost: 12.9 km
Oblačno až skoro zataženo ve výšce 600 ft
Oblačno až skoro zataženo ve výšce 1000 ft
Zataženo ve výšce 3000 ft

METAR: KMOR 181815Z AUTO 00000KT 8SM BKN006 BKN010 OVC030 08/08 A3009 RMK A01

Čas: 12:39 (18:39 UTC)


TAF: chybějící

Stav a předpovědi počasí z více než 4 000 letišť (zprávy METAR a TAF).

Červené a žluté tečky na mapě představují dostupné meteorologické stanice.

Když kurzor umístíte na tečku, zobrazí se název stanice.

Pak kliknutím zobrazíte stav a předpověď počasí.

Chcete-li změnit mapu, kliknutím na zelené tlačítko se znaménkem +mapu přiblížíte, kliknutím na zelené tlačítko se znaménkem – mapu oddálíte a kliknutím na zelené šipky přejdete na sousední mapy.


METAR-TAF: